Time;durP1;ratioP1;P1;durP2;ratioP2;P2;SDS_P1;SDS_P2;PMS_P1;PMS_P2;Temp;Humidity;BMP_temperature;BMP_pressure;BME280_temperature;BME280_humidity;BME280_pressure;Samples;Min_cycle;Max_cycle;Signal;HPM_P1;HPM_P2
2022/05/09 00:00:19;;;;;;;11.57;4.27;;;;;;;10.71;61.96;101647.61;1812491;79;21126;-77
2022/05/09 00:02:50;;;;;;;8.10;4.03;;;;;;;10.71;61.86;101648.47;1821276;78;21013;-79
2022/05/09 00:05:20;;;;;;;13.87;4.37;;;;;;;10.69;61.83;101650.25;1812561;79;21537;-78
2022/05/09 00:07:47;;;;;;;11.97;4.28;;;;;;;10.64;61.88;101652.53;1769810;79;21041;-77
2022/05/09 00:10:18;;;;;;;10.20;4.20;;;;;;;10.57;61.83;101653.55;1793346;80;21098;-81
2022/05/09 00:12:46;;;;;;;10.97;3.90;;;;;;;10.48;61.97;101654.12;1793089;80;21009;-77
2022/05/09 00:15:16;;;;;;;11.27;4.80;;;;;;;10.40;62.10;101661.69;1793334;80;21580;-78
2022/05/09 00:17:45;;;;;;;8.78;4.33;;;;;;;10.29;62.25;101659.23;1793247;80;21533;-77
2022/05/09 00:20:17;;;;;;;8.40;4.03;;;;;;;10.18;62.45;101663.75;1793447;80;21036;-77
2022/05/09 00:22:52;;;;;;;;;;;;;;;10.05;62.40;101665.67;1797518;79;21121;-77
2022/05/09 00:25:24;;;;;;;7.37;3.33;;;;;;;9.94;62.78;101672.37;1797022;79;20199;-77
2022/05/09 00:27:52;;;;;;;10.30;4.27;;;;;;;9.80;62.81;101673.87;1797580;79;21490;-79
2022/05/09 00:30:21;;;;;;;8.30;4.20;;;;;;;9.70;62.78;101671.39;1797079;79;21036;-76
2022/05/09 00:32:48;;;;;;;9.23;3.77;;;;;;;9.59;63.12;101679.41;1797639;79;20994;-77
2022/05/09 00:35:15;;;;;;;9.07;3.93;;;;;;;9.45;63.32;101673.03;1797145;79;21304;-77
2022/05/09 00:37:43;;;;;;;11.13;4.13;;;;;;;9.36;63.50;101683.14;1797257;79;21037;-76
2022/05/09 00:40:14;;;;;;;6.70;3.87;;;;;;;9.28;63.64;101682.80;1797038;79;21028;-77
2022/05/09 00:42:53;;;;;;;8.03;3.50;;;;;;;9.16;63.88;101680.75;1797327;79;22544;-78
2022/05/09 00:45:24;;;;;;;8.20;4.07;;;;;;;9.08;64.05;101690.42;1796996;79;21431;-77
2022/05/09 00:47:51;;;;;;;6.87;4.00;;;;;;;9.03;64.34;101697.45;1797269;79;21384;-79
2022/05/09 00:50:28;;;;;;;9.03;3.97;;;;;;;9.00;64.53;101700.54;1797018;79;20993;-77
2022/05/09 00:53:07;;;;;;;10.93;3.93;;;;;;;8.94;64.71;101698.85;1797341;79;21028;-77
2022/05/09 00:55:46;;;;;;;8.73;3.72;;;;;;;8.87;64.87;101702.42;1770525;79;21053;-77
2022/05/09 00:58:27;;;;;;;12.20;4.13;;;;;;;8.81;65.06;101701.14;1795978;79;21047;-77
2022/05/09 01:00:57;;;;;;;10.43;3.67;;;;;;;8.78;65.32;101701.17;1797048;79;21133;-77
2022/05/09 01:03:32;;;;;;;8.68;3.65;;;;;;;8.76;65.51;101703.83;1797309;79;20994;-78
2022/05/09 01:05:59;;;;;;;9.83;3.80;;;;;;;8.77;65.64;101694.22;1792967;79;21033;-77
2022/05/09 01:08:26;;;;;;;7.17;3.57;;;;;;;8.79;65.84;101695.95;1797342;79;20985;-77
2022/05/09 01:10:55;;;;;;;11.57;4.10;;;;;;;8.78;65.87;101698.56;1796914;79;21052;-77
2022/05/09 01:13:26;;;;;;;10.33;4.33;;;;;;;8.81;65.95;101699.42;1797476;79;21160;-77
2022/05/09 01:15:54;;;;;;;11.67;4.37;;;;;;;8.85;65.97;101708.09;1796698;79;21020;-78
2022/05/09 01:18:22;;;;;;;9.37;3.97;;;;;;;8.87;65.99;101705.90;1797175;79;21048;-77
2022/05/09 01:20:49;;;;;;;8.53;3.87;;;;;;;8.91;65.93;101705.42;1796986;79;21012;-79
2022/05/09 01:23:17;;;;;;;13.30;3.80;;;;;;;8.92;65.87;101705.84;1797015;79;21004;-77
2022/05/09 01:25:44;;;;;;;9.33;3.63;;;;;;;8.90;65.87;101708.48;1797273;79;21184;-77
2022/05/09 01:28:12;;;;;;;9.00;3.70;;;;;;;8.88;65.89;101703.70;1797263;79;21446;-77
2022/05/09 01:31:02;;;;;;;8.60;3.57;;;;;;;8.82;65.79;101708.98;1796889;79;21032;-77
2022/05/09 01:33:34;;;;;;;7.15;3.33;;;;;;;8.75;65.80;101706.44;1797487;79;21075;-76
2022/05/09 01:36:12;;;;;;;11.50;4.23;;;;;;;8.71;65.90;101711.69;1797165;79;21123;-78
2022/05/09 01:38:49;;;;;;;10.28;4.00;;;;;;;8.66;65.94;101706.08;1795662;79;21184;-77
2022/05/09 01:41:17;;;;;;;11.37;4.03;;;;;;;8.61;65.97;101711.33;1796856;79;48211;-77
2022/05/09 01:43:48;;;;;;;8.30;4.20;;;;;;;8.54;66.04;101714.03;1796916;79;20985;-76
2022/05/09 01:46:20;;;;;;;8.23;3.67;;;;;;;8.47;66.15;101715.80;1797060;79;21492;-79
2022/05/09 01:51:35;;;;;;;11.83;4.00;;;;;;;8.34;66.44;101716.72;1797370;79;21182;-77
2022/05/09 01:54:02;;;;;;;10.00;3.87;;;;;;;8.27;66.59;101714.60;1797142;79;21075;-77
2022/05/09 01:56:34;;;;;;;7.37;3.77;;;;;;;8.23;66.66;101719.41;1797048;79;20997;-79
2022/05/09 01:59:02;;;;;;;7.70;3.77;;;;;;;8.17;66.82;101722.06;1797031;79;21542;-77
2022/05/09 02:01:36;;;;;;;6.90;3.53;;;;;;;8.11;66.87;101723.41;1797025;79;21048;-79
2022/05/09 02:04:05;;;;;;;10.87;4.30;;;;;;;8.04;66.97;101726.05;1796950;79;22053;-77
2022/05/09 02:06:32;;;;;;;7.73;3.80;;;;;;;8.03;67.37;101719.52;1796933;79;20993;-76
2022/05/09 02:09:00;;;;;;;9.63;4.50;;;;;;;8.08;67.63;101723.42;1796960;79;21024;-77
2022/05/09 02:11:27;;;;;;;11.43;4.37;;;;;;;8.09;67.75;101720.79;1797121;79;21431;-77
2022/05/09 02:13:54;;;;;;;8.80;4.10;;;;;;;8.12;67.86;101722.52;1797181;79;21467;-78
2022/05/09 02:16:21;;;;;;;9.80;3.97;;;;;;;8.14;67.87;101727.30;1797144;79;22150;-79
2022/05/09 02:18:48;;;;;;;10.67;3.87;;;;;;;8.15;68.02;101724.70;1797155;79;20969;-77
2022/05/09 02:21:15;;;;;;;9.67;3.97;;;;;;;8.17;68.03;101723.36;1797001;79;21068;-76
2022/05/09 02:23:42;;;;;;;10.00;4.33;;;;;;;8.21;68.32;101723.79;1796919;79;21284;-76
2022/05/09 02:26:10;;;;;;;10.47;4.37;;;;;;;8.25;68.36;101725.05;1797133;79;21087;-77
2022/05/09 02:28:37;;;;;;;7.70;4.20;;;;;;;8.30;68.47;101730.25;1796966;79;21563;-80
2022/05/09 02:31:04;;;;;;;9.83;4.70;;;;;;;8.32;68.42;101732.42;1796974;79;20946;-76
2022/05/09 02:33:32;;;;;;;9.50;4.30;;;;;;;8.32;68.45;101735.04;1796977;79;21032;-77
2022/05/09 02:35:59;;;;;;;8.50;4.20;;;;;;;8.34;68.67;101731.98;1797149;79;21017;-76
2022/05/09 02:38:28;;;;;;;11.23;4.53;;;;;;;8.39;68.76;101733.27;1797393;79;21001;-76
2022/05/09 02:40:57;;;;;;;13.47;4.70;;;;;;;8.45;68.91;101738.45;1797046;79;22259;-77
2022/05/09 02:43:24;;;;;;;10.17;5.00;;;;;;;8.48;69.01;101737.16;1796935;79;20961;-76
2022/05/09 02:45:51;;;;;;;15.90;5.03;;;;;;;8.53;69.10;101740.57;1797100;79;21525;-77
2022/05/09 02:48:18;;;;;;;7.93;4.43;;;;;;;8.54;68.91;101735.80;1797171;79;21060;-77
2022/05/09 02:50:46;;;;;;;11.60;4.77;;;;;;;8.50;68.79;101731.45;1797138;79;21526;-76
2022/05/09 02:53:13;;;;;;;13.03;5.67;;;;;;;8.47;68.84;101738.02;1797421;79;21354;-78
2022/05/09 02:55:40;;;;;;;10.23;4.60;;;;;;;8.45;68.83;101740.66;1796982;79;21486;-77
2022/05/09 02:58:07;;;;;;;13.73;4.87;;;;;;;8.40;68.75;101743.73;1797250;79;21020;-76
2022/05/09 03:00:34;;;;;;;10.57;4.53;;;;;;;8.37;68.88;101744.12;1797151;79;21002;-76
2022/05/09 03:05:47;;;;;;;10.57;5.17;;;;;;;8.35;69.20;101745.91;1797031;79;22022;-76
2022/05/09 03:08:18;;;;;;;11.90;5.27;;;;;;;8.35;69.34;101739.38;1797315;79;21010;-76
2022/05/09 03:10:45;;;;;;;;;;;;;;;8.36;69.48;101741.96;1800041;79;20921;-78
2022/05/09 03:13:14;;;;;;;8.97;4.93;;;;;;;8.37;69.78;101744.12;1797509;79;20500;-76
2022/05/09 03:15:47;;;;;;;12.37;6.13;;;;;;;8.32;69.50;101742.88;1797311;79;20989;-76
2022/05/09 03:18:19;;;;;;;12.27;5.67;;;;;;;8.31;69.62;101746.78;1797540;79;21116;-76
2022/05/09 03:20:46;;;;;;;11.03;6.50;;;;;;;8.26;69.52;101743.78;1797220;79;21583;-77
2022/05/09 03:23:14;;;;;;;12.30;6.00;;;;;;;8.22;69.60;101747.27;1797216;79;21521;-77
2022/05/09 03:25:42;;;;;;;10.60;5.97;;;;;;;8.22;69.76;101752.50;1797280;79;21099;-77
2022/05/09 03:28:14;;;;;;;13.10;6.53;;;;;;;8.18;69.64;101754.70;1797207;79;21063;-76
2022/05/09 03:30:44;;;;;;;13.03;6.60;;;;;;;8.14;69.77;101754.28;1797205;79;21523;-78
2022/05/09 03:33:11;;;;;;;10.90;6.50;;;;;;;8.12;69.97;101763.89;1797230;79;21033;-78
2022/05/09 03:35:38;;;;;;;12.37;6.50;;;;;;;8.10;70.19;101765.63;1797279;79;20989;-78
2022/05/09 03:38:05;;;;;;;12.27;7.67;;;;;;;8.10;70.27;101768.24;1797261;79;21044;-76
2022/05/09 03:40:34;;;;;;;13.03;6.57;;;;;;;8.11;70.44;101768.66;1797287;79;21001;-78
2022/05/09 03:43:02;;;;;;;12.90;6.80;;;;;;;8.10;70.53;101770.86;1797148;79;21129;-76
2022/05/09 03:45:29;;;;;;;13.10;7.23;;;;;;;8.10;70.60;101768.69;1797231;79;21021;-76
2022/05/09 03:47:57;;;;;;;16.57;7.40;;;;;;;8.10;70.77;101772.61;1797264;79;21447;-76
2022/05/09 03:50:24;;;;;;;13.40;7.23;;;;;;;8.10;70.87;101768.69;1797191;79;21104;-76
2022/05/09 03:52:51;;;;;;;13.50;8.00;;;;;;;8.08;70.73;101772.59;1797317;79;21051;-77
2022/05/09 03:55:18;;;;;;;12.03;7.23;;;;;;;8.05;70.82;101773.92;1797531;79;21094;-76
2022/05/09 03:57:52;;;;;;;14.70;8.30;;;;;;;8.03;71.00;101780.44;1797088;79;21559;-76
2022/05/09 04:00:24;;;;;;;12.93;7.60;;;;;;;8.04;71.15;101781.34;1797398;79;21088;-76
2022/05/09 04:02:52;;;;;;;15.77;9.07;;;;;;;8.01;71.09;101782.66;1797182;79;21013;-76
2022/05/09 04:05:20;;;;;;;15.23;8.50;;;;;;;7.98;71.16;101789.17;1797496;79;21314;-76
2022/05/09 04:07:51;;;;;;;14.70;8.60;;;;;;;7.94;71.19;101788.77;1797155;79;21124;-76
2022/05/09 04:10:23;;;;;;;16.50;9.27;;;;;;;7.91;71.38;101785.73;1797402;79;20989;-76
2022/05/09 04:12:49;;;;;;;14.07;8.83;;;;;;;7.93;71.61;101787.04;1797198;79;21510;-76
2022/05/09 04:18:05;;;;;;;18.87;11.00;;;;;;;7.98;71.97;101792.67;1797274;79;21645;-76
2022/05/09 04:20:35;;;;;;;16.30;11.23;;;;;;;8.02;72.33;101794.83;1797465;79;21285;-76
2022/05/09 04:23:02;;;;;;;16.17;11.12;;;;;;;8.08;72.55;101799.16;1797167;79;20984;-76
2022/05/09 04:25:33;;;;;;;17.23;11.33;;;;;;;8.15;72.86;101799.13;1797228;79;21041;-77
2022/05/09 04:28:04;;;;;;;15.27;10.97;;;;;;;8.22;72.90;101794.73;1797141;79;20974;-76
2022/05/09 04:30:36;;;;;;;19.07;12.17;;;;;;;8.27;72.92;101805.58;1797286;79;21596;-76
2022/05/09 04:33:06;;;;;;;16.10;11.17;;;;;;;8.34;73.06;101802.52;1797455;79;21877;-76
2022/05/09 04:35:34;;;;;;;15.20;11.63;;;;;;;8.39;73.04;101800.76;1797184;79;20972;-76
2022/05/09 04:38:02;;;;;;;16.00;10.97;;;;;;;8.44;73.16;101803.36;1797394;79;20997;-77
2022/05/09 04:40:33;;;;;;;16.10;11.57;;;;;;;8.51;73.08;101808.09;1797127;79;21036;-79
2022/05/09 04:43:00;;;;;;;17.20;12.00;;;;;;;8.53;73.08;101808.96;1797219;79;21021;-77
2022/05/09 04:45:29;;;;;;;20.50;11.70;;;;;;;8.58;73.17;101811.11;1788584;79;21996;-78
2022/05/09 04:47:57;;;;;;;21.53;13.23;;;;;;;8.62;73.19;101812.84;1779615;79;21036;-78
2022/05/09 04:50:26;;;;;;;17.47;12.57;;;;;;;8.66;73.31;101813.24;1793250;79;21053;-79
2022/05/09 04:52:53;;;;;;;15.32;12.78;;;;;;;8.71;73.31;101811.47;1785507;79;21040;-78
2022/05/09 04:55:21;;;;;;;19.20;13.53;;;;;;;8.74;73.40;101816.67;1769290;79;20997;-78
2022/05/09 04:57:52;;;;;;;23.37;13.40;;;;;;;8.80;73.54;101814.45;1785452;79;21021;-78
2022/05/09 05:00:24;;;;;;;18.20;13.70;;;;;;;8.85;73.47;101812.68;1796614;79;21041;-77
2022/05/09 05:02:53;;;;;;;19.13;14.50;;;;;;;8.91;73.55;101811.32;1796921;79;21044;-78
2022/05/09 05:05:22;;;;;;;19.20;13.63;;;;;;;8.96;73.50;101803.00;1784460;79;20993;-78
2022/05/09 05:07:49;;;;;;;20.83;14.33;;;;;;;8.99;73.48;101808.20;1784262;79;21075;-78
2022/05/09 05:10:17;;;;;;;17.63;12.67;;;;;;;9.04;73.54;101809.48;1788183;79;22006;-77
2022/05/09 05:12:44;;;;;;;20.20;14.00;;;;;;;9.06;73.54;101817.75;1795883;79;21048;-78
2022/05/09 05:15:13;;;;;;;19.80;13.40;;;;;;;9.08;73.53;101819.89;1785959;79;21466;-77
2022/05/09 05:17:40;;;;;;;19.50;14.20;;;;;;;9.12;73.54;101823.37;1790220;79;20928;-78
2022/05/09 05:20:12;;;;;;;18.73;13.63;;;;;;;9.16;73.55;101825.07;1794615;79;21020;-78
2022/05/09 05:22:43;;;;;;;18.90;14.37;;;;;;;9.20;73.53;101826.80;1784984;79;21095;-78
2022/05/09 05:25:13;;;;;;;19.33;13.93;;;;;;;9.25;73.63;101831.52;1796254;79;21044;-78
2022/05/09 05:27:40;;;;;;;18.23;13.98;;;;;;;9.29;73.69;101831.94;1793328;79;21008;-78
2022/05/09 05:30:09;;;;;;;19.90;13.60;;;;;;;9.35;73.62;101834.94;1794728;79;21008;-78
2022/05/09 05:32:39;;;;;;;18.82;13.22;;;;;;;9.37;73.69;101838.42;1794754;79;20992;-79
2022/05/09 05:35:11;;;;;;;17.48;13.43;;;;;;;9.44;73.81;101837.46;1791154;79;21951;-78
2022/05/09 05:37:38;;;;;;;17.43;13.07;;;;;;;9.49;73.72;101838.73;1807176;79;20993;-77
2022/05/09 05:40:06;;;;;;;20.73;14.67;;;;;;;9.54;73.81;101839.12;1796886;79;21019;-77
2022/05/09 05:42:34;;;;;;;20.63;14.93;;;;;;;9.61;73.85;101840.77;1785264;79;21597;-78
2022/05/09 05:45:01;;;;;;;21.37;14.13;;;;;;;9.68;73.81;101835.50;1765489;80;21133;-78
2022/05/09 05:47:28;;;;;;;20.23;14.80;;;;;;;9.75;73.89;101835.84;1780334;80;21037;-77
2022/05/09 05:49:55;;;;;;;18.10;13.80;;;;;;;9.83;73.84;101837.49;1778805;80;21031;-78
2022/05/09 05:52:24;;;;;;;19.27;13.57;;;;;;;9.92;73.83;101835.66;1791762;78;21084;-78
2022/05/09 05:54:51;;;;;;;21.37;15.47;;;;;;;10.00;73.75;101832.51;1797920;79;21036;-76
2022/05/09 05:57:26;;;;;;;18.70;13.90;;;;;;;10.08;73.86;101839.83;1830127;78;21082;-77
2022/05/09 06:00:06;;;;;;;18.33;14.37;;;;;;;10.18;73.69;101841.92;1798165;79;21156;-77
2022/05/09 06:02:39;;;;;;;19.20;14.33;;;;;;;10.26;73.48;101850.10;1825719;78;21035;-81
2022/05/09 06:05:09;;;;;;;22.20;14.30;;;;;;;10.32;73.23;101841.78;1805214;79;21020;-75
2022/05/09 06:07:37;;;;;;;19.93;13.47;;;;;;;10.39;73.30;101840.37;1804956;79;20981;-78
2022/05/09 06:10:07;;;;;;;18.13;13.50;;;;;;;10.48;73.13;101843.31;1805053;79;21032;-78
2022/05/09 06:12:34;;;;;;;21.48;14.43;;;;;;;10.55;72.95;101845.39;1804965;79;21939;-78
2022/05/09 06:17:48;;;;;;;22.00;13.97;;;;;;;10.68;72.60;101846.51;1805015;79;20909;-75
2022/05/09 06:20:15;;;;;;;18.23;13.13;;;;;;;10.72;72.50;101846.01;1805165;79;21043;-76
2022/05/09 06:22:42;;;;;;;17.33;12.60;;;;;;;10.78;72.40;101851.61;1805000;79;21383;-76
2022/05/09 06:25:15;;;;;;;18.27;13.30;;;;;;;10.83;72.06;101850.65;1804983;79;21243;-75
2022/05/09 06:27:43;;;;;;;18.37;13.20;;;;;;;10.90;72.27;101848.83;1804396;79;21008;-76
2022/05/09 06:30:14;;;;;;;18.00;13.30;;;;;;;11.01;72.30;101854.77;1804977;79;21040;-76
2022/05/09 06:32:42;;;;;;;15.45;12.45;;;;;;;11.10;71.96;101849.81;1797608;79;21016;-76
2022/05/09 06:35:14;;;;;;;20.03;12.70;;;;;;;11.17;71.77;101855.40;1773917;79;22064;-76
2022/05/09 06:37:42;;;;;;;15.73;11.93;;;;;;;11.25;71.93;101848.69;1773036;80;22024;-77
2022/05/09 06:40:11;;;;;;;16.60;12.87;;;;;;;11.34;71.61;101854.66;1773303;80;21511;-79
2022/05/09 06:42:39;;;;;;;18.32;13.25;;;;;;;11.41;71.65;101850.62;1778279;79;21043;-77
2022/05/09 06:45:08;;;;;;;18.77;12.30;;;;;;;11.54;71.60;101862.19;1798502;79;20924;-76
2022/05/09 06:47:37;;;;;;;15.37;12.67;;;;;;;11.61;71.07;101859.89;1807913;78;21055;-77
2022/05/09 06:50:07;;;;;;;15.93;13.00;;;;;;;11.67;71.13;101858.05;1796043;79;21130;-76
2022/05/09 06:52:36;;;;;;;17.37;12.67;;;;;;;11.78;71.14;101862.20;1808543;78;20987;-77
2022/05/09 06:55:04;;;;;;;18.17;13.10;;;;;;;11.87;70.80;101859.02;1798071;79;21461;-78
2022/05/09 07:00:26;;;;;;;15.20;12.03;;;;;;;12.00;70.51;101854.81;1624168;86;21085;-76
2022/05/09 07:02:53;;;;;;;15.57;11.47;;;;;;;12.11;70.42;101857.65;1623748;87;21353;-80
2022/05/09 07:05:21;;;;;;;16.70;12.28;;;;;;;12.20;70.35;101860.12;1624104;87;21516;-81
2022/05/09 07:07:49;;;;;;;18.23;11.50;;;;;;;12.34;70.26;101854.12;1623808;87;21122;-77
2022/05/09 07:10:18;;;;;;;15.50;11.70;;;;;;;12.43;69.75;101850.42;1620564;87;21180;-78
2022/05/09 07:12:55;;;;;;;15.88;11.73;;;;;;;12.48;69.29;101852.05;1623906;87;21625;-84
2022/05/09 07:15:29;;;;;;;15.28;11.38;;;;;;;12.53;69.33;101860.30;1621738;87;21956;-78
2022/05/09 07:17:58;;;;;;;13.98;11.18;;;;;;;12.61;69.18;101855.29;1627159;87;21065;-75
2022/05/09 07:20:29;;;;;;;15.30;11.37;;;;;;;12.71;69.24;101853.30;1624495;87;21598;-77
2022/05/09 07:23:00;;;;;;;14.50;10.90;;;;;;;12.84;69.01;101853.44;1623218;87;21515;-78
2022/05/09 07:25:27;;;;;;;16.97;11.65;;;;;;;12.90;68.55;101853.75;1620669;87;21118;-75
2022/05/09 07:27:54;;;;;;;17.40;11.55;;;;;;;13.01;68.71;101852.19;1619491;88;22058;-76
2022/05/09 07:30:28;;;;;;;12.45;10.95;;;;;;;13.11;68.22;101853.70;1623233;86;21129;-78
2022/05/09 07:32:56;;;;;;;17.55;12.03;;;;;;;13.16;68.17;101855.73;1621401;86;21144;-78
2022/05/09 07:35:23;;;;;;;15.00;11.40;;;;;;;13.26;68.01;101855.97;1621193;86;21118;-76
2022/05/09 07:37:50;;;;;;;12.18;10.45;;;;;;;13.31;67.86;101854.09;1713989;78;21055;-78
2022/05/09 07:40:20;;;;;;;17.67;12.23;;;;;;;13.44;68.08;101861.24;1801074;78;21961;-77
2022/05/09 07:42:48;;;;;;;15.95;12.03;;;;;;;13.57;67.89;101861.31;1821241;78;26327;-76
2022/05/09 07:45:18;;;;;;;19.17;10.82;;;;;;;13.71;67.69;101858.77;1815589;78;21004;-78
2022/05/09 07:47:46;;;;;;;13.93;9.90;;;;;;;13.77;66.99;101856.85;1802330;78;21032;-76
2022/05/09 07:50:16;;;;;;;12.03;10.25;;;;;;;13.85;66.87;101859.25;1821267;78;21012;-76
2022/05/09 07:52:45;;;;;;;16.35;11.90;;;;;;;13.94;66.77;101860.77;1812438;79;21115;-76
2022/05/09 07:55:15;;;;;;;16.50;11.25;;;;;;;14.07;66.76;101858.20;1789107;79;20965;-76
2022/05/09 07:57:42;;;;;;;13.90;10.48;;;;;;;14.22;66.75;101856.47;1814732;78;21060;-76
2022/05/09 08:00:10;;;;;;;14.47;10.35;;;;;;;14.40;66.65;101851.55;1788418;78;21005;-76
2022/05/09 08:02:42;;;;;;;15.15;9.90;;;;;;;14.56;66.27;101852.84;1821728;78;21037;-75
2022/05/09 08:05:10;;;;;;;14.07;10.90;;;;;;;14.66;65.84;101847.70;1821184;78;21557;-76
2022/05/09 08:07:39;;;;;;;12.50;9.83;;;;;;;14.75;65.72;101843.05;1821509;78;21005;-76
2022/05/09 08:10:09;;;;;;;13.85;9.80;;;;;;;14.91;65.77;101846.94;1821331;78;21063;-76
2022/05/09 08:12:37;;;;;;;12.60;9.45;;;;;;;15.01;65.27;101850.98;1821394;78;20981;-75
2022/05/09 08:15:07;;;;;;;14.35;10.10;;;;;;;15.06;64.63;101849.06;1821557;78;21537;-75
2022/05/09 08:17:34;;;;;;;13.75;9.95;;;;;;;15.14;64.79;101845.72;1821835;78;21086;-75
2022/05/09 08:20:01;;;;;;;13.48;10.28;;;;;;;15.31;64.91;101850.44;1821377;78;21018;-87
2022/05/09 08:22:31;;;;;;;14.20;10.00;;;;;;;15.49;64.55;101854.68;1821644;78;21065;-77
2022/05/09 08:24:58;;;;;;;11.22;8.83;;;;;;;15.59;64.10;101855.64;1822777;78;20961;-76
2022/05/09 08:27:27;;;;;;;12.73;8.30;;;;;;;15.66;63.56;101852.34;1827842;78;21485;-76
2022/05/09 08:29:56;;;;;;;12.50;9.23;;;;;;;15.78;63.69;101850.60;1793561;80;21264;-75
2022/05/09 08:32:25;;;;;;;13.70;9.70;;;;;;;15.97;63.65;101853.45;1827562;78;21008;-75
2022/05/09 08:34:53;;;;;;;10.58;7.47;;;;;;;16.36;63.18;101851.56;1827966;78;21048;-75
2022/05/09 08:37:21;;;;;;;12.03;8.28;;;;;;;16.36;63.18;101851.56;1823111;78;22161;-75
2022/05/09 08:39:48;;;;;;;13.13;9.70;;;;;;;16.56;62.41;101852.11;1811726;78;21086;-76
2022/05/09 08:42:42;;;;;;;13.72;10.15;;;;;;;16.69;62.53;101848.07;1791884;80;21290;-76
2022/05/09 08:45:36;;;;;;;12.53;9.90;;;;;;;16.89;62.38;101850.41;1815626;78;21001;-75
2022/05/09 08:48:26;;;;;;;13.85;9.55;;;;;;;17.09;61.22;101850.92;1824678;78;21072;-75
2022/05/09 08:51:21;;;;;;;14.03;10.53;;;;;;;17.09;61.22;101850.92;1782514;80;21040;-76
2022/05/09 08:53:54;;;;;;;14.33;9.95;;;;;;;17.17;61.30;101844.38;1751744;81;21912;-75
2022/05/09 08:56:22;;;;;;;12.13;9.20;;;;;;;17.36;60.68;101848.92;1769156;81;21136;-75
2022/05/09 08:59:01;;;;;;;10.98;9.58;;;;;;;17.42;60.30;101851.77;1751950;81;21028;-75
2022/05/09 09:01:33;;;;;;;12.33;8.93;;;;;;;17.58;59.94;101852.37;1768947;81;21588;-75
2022/05/09 09:04:07;;;;;;;14.65;9.95;;;;;;;17.75;60.15;101855.61;1751715;81;21048;-85
2022/05/09 09:07:06;;;;;;;10.82;8.93;;;;;;;17.90;59.66;101855.41;1739635;81;21079;-75
2022/05/09 09:10:15;;;;;;;12.03;8.70;;;;;;;18.02;59.15;101852.23;1750923;81;21172;-75
2022/05/09 09:13:05;;;;;;;11.22;8.58;;;;;;;18.12;58.35;101853.98;1768935;81;20972;-89
2022/05/09 09:16:12;;;;;;;14.13;9.03;;;;;;;18.22;57.98;101849.98;1769256;81;21003;-75
2022/05/09 09:19:20;;;;;;;10.90;7.70;;;;;;;18.34;57.66;101847.23;1752120;81;21082;-75
2022/05/09 09:22:20;;;;;;;8.25;6.50;;;;;;;18.52;57.48;101857.47;1769165;81;21525;-75
2022/05/09 09:24:56;;;;;;;10.58;7.28;;;;;;;18.70;56.85;101851.26;1768934;81;21505;-78
2022/05/09 09:27:46;;;;;;;11.85;7.67;;;;;;;18.91;56.19;101853.86;1769017;81;21326;-81
2022/05/09 09:30:18;;;;;;;10.08;6.62;;;;;;;19.00;55.63;101842.77;1769436;81;21034;-75
2022/05/09 09:32:50;;;;;;;10.08;6.33;;;;;;;19.12;55.14;101850.59;1746247;82;21505;-75
2022/05/09 09:35:46;;;;;;;8.58;5.70;;;;;;;19.25;54.92;101845.06;1746254;82;21045;-79
2022/05/09 09:38:54;;;;;;;8.38;5.97;;;;;;;19.41;54.08;101841.64;1767468;81;21212;-88
2022/05/09 09:41:32;;;;;;;10.43;5.62;;;;;;;19.50;53.25;101846.48;1768298;81;21060;-76
2022/05/09 09:44:19;;;;;;;10.18;5.78;;;;;;;19.53;52.58;101837.86;1768990;81;21107;-76
2022/05/09 09:47:15;;;;;;;11.90;6.42;;;;;;;19.65;52.21;101842.16;1745690;82;21028;-76
2022/05/09 09:49:44;;;;;;;9.65;6.40;;;;;;;19.73;51.96;101836.88;1746235;82;21427;-76
2022/05/09 09:52:31;;;;;;;8.10;5.92;;;;;;;19.89;51.74;101842.23;1769016;81;22079;-75
2022/05/09 09:55:09;;;;;;;11.05;5.33;;;;;;;19.95;50.89;101840.59;1744762;82;21513;-76
2022/05/09 09:57:37;;;;;;;10.85;5.42;;;;;;;20.05;51.03;101834.29;1769276;81;21017;-75
2022/05/09 10:00:31;;;;;;;8.08;6.37;;;;;;;20.23;50.82;101833.30;1768916;81;21020;-75
2022/05/09 10:03:20;;;;;;;9.90;6.90;;;;;;;20.48;50.84;101830.61;1739481;82;21024;-75
2022/05/09 10:05:49;;;;;;;;;;;;;;;20.75;50.50;101828.20;1771495;81;21085;-75
2022/05/09 10:08:34;;;;;;;10.88;6.20;;;;;;;20.90;49.50;101830.00;1768897;81;20423;-75
2022/05/09 10:11:23;;;;;;;9.05;5.67;;;;;;;21.06;49.30;101831.31;1745167;82;21016;-76
2022/05/09 10:13:54;;;;;;;9.00;4.75;;;;;;;21.12;48.69;101826.95;1769172;81;20988;-75
2022/05/09 10:16:48;;;;;;;10.98;5.15;;;;;;;21.31;48.31;101817.83;1739017;81;21548;-89
2022/05/09 10:19:20;;;;;;;6.67;5.08;;;;;;;21.51;48.18;101818.03;1746056;82;21139;-76
2022/05/09 10:24:49;;;;;;;8.05;5.10;;;;;;;22.01;47.19;101821.58;1743752;81;21019;-75
2022/05/09 10:27:27;;;;;;;7.28;4.78;;;;;;;22.14;46.61;101813.66;1745994;82;21001;-75
2022/05/09 10:30:05;;;;;;;6.22;4.37;;;;;;;22.36;46.48;101815.82;1768931;81;21210;-76
2022/05/09 10:32:56;;;;;;;9.98;4.65;;;;;;;22.13;45.30;101815.08;1746429;81;21486;-76
2022/05/09 10:35:27;;;;;;;8.88;4.55;;;;;;;21.81;45.00;101819.30;1746056;82;20988;-76
2022/05/09 10:38:07;;;;;;;8.58;4.58;;;;;;;21.82;44.84;101819.67;1769036;81;21470;-89
2022/05/09 10:40:51;;;;;;;10.95;4.78;;;;;;;22.01;44.84;101812.23;1746114;82;21502;-76
2022/05/09 10:43:31;;;;;;;6.97;4.42;;;;;;;22.18;44.77;101807.19;1769209;81;21488;-76
2022/05/09 10:46:02;;;;;;;7.08;4.30;;;;;;;22.47;44.96;101804.00;1746123;81;21297;-76
2022/05/09 10:48:35;;;;;;;9.00;4.20;;;;;;;22.76;44.21;101805.71;1768620;81;21051;-78
2022/05/09 10:51:16;;;;;;;7.28;3.52;;;;;;;22.95;44.00;101803.53;1778676;79;21012;-77
2022/05/09 10:53:58;;;;;;;7.35;3.90;;;;;;;23.14;43.55;101798.69;1770161;79;21047;-77
2022/05/09 10:56:32;;;;;;;6.35;4.25;;;;;;;23.43;43.47;101803.84;1769278;81;20992;-77
2022/05/09 10:59:07;;;;;;;8.75;4.03;;;;;;;23.69;42.92;101799.83;1768598;80;21501;-77
2022/05/09 11:01:50;;;;;;;8.43;4.08;;;;;;;23.94;42.64;101798.98;1770083;81;21015;-82
2022/05/09 11:04:18;;;;;;;9.25;4.00;;;;;;;24.12;41.84;101788.30;1769979;81;21574;-78
2022/05/09 11:07:16;;;;;;;6.10;4.40;;;;;;;24.25;41.43;101790.47;1770148;81;21548;-77
2022/05/09 11:10:17;;;;;;;7.25;4.22;;;;;;;24.39;41.14;101782.75;1770093;81;21021;-78
2022/05/09 11:13:16;;;;;;;7.28;3.33;;;;;;;24.63;41.18;101776.56;1766439;81;21111;-78
2022/05/09 11:15:49;;;;;;;4.08;2.90;;;;;;;24.91;40.77;101775.34;1766679;81;21094;-76
2022/05/09 11:18:56;;;;;;;7.33;3.60;;;;;;;25.07;40.32;101772.34;1775235;78;21044;-77
2022/05/09 11:21:49;;;;;;;6.50;3.58;;;;;;;24.91;39.68;101772.66;1787705;79;20936;-77
2022/05/09 11:24:33;;;;;;;8.63;3.27;;;;;;;24.35;38.94;101769.69;1796415;79;21047;-77
2022/05/09 11:27:57;;;;;;;6.80;3.35;;;;;;;24.28;38.85;101771.97;1788176;78;21209;-88
2022/05/09 11:30:51;;;;;;;8.28;3.15;;;;;;;24.32;38.83;101764.56;1794566;79;21015;-86
2022/05/09 11:33:58;;;;;;;5.15;3.10;;;;;;;24.07;38.52;101767.68;1778451;80;21054;-81
2022/05/09 11:37:00;;;;;;;5.85;3.60;;;;;;;23.78;38.22;101759.08;1796655;79;21031;-80
2022/05/09 11:39:35;;;;;;;6.62;3.02;;;;;;;23.30;38.32;101766.86;1776380;78;21303;-77
2022/05/09 11:45:26;;;;;;;6.50;3.58;;;;;;;23.41;38.55;101760.28;1773263;80;21575;-77
2022/05/09 11:48:49;;;;;;;7.47;3.37;;;;;;;23.69;38.22;101754.33;1773446;80;21018;-77
2022/05/09 11:51:30;;;;;;;5.92;3.20;;;;;;;23.88;38.39;101753.41;1773319;80;21034;-77
2022/05/09 11:54:05;;;;;;;6.50;3.37;;;;;;;24.37;38.20;101748.51;1772924;80;21022;-77
2022/05/09 11:56:33;;;;;;;12.58;3.50;;;;;;;24.66;37.36;101746.84;1773288;80;21480;-77
2022/05/09 11:59:03;;;;;;;6.17;3.08;;;;;;;24.84;37.10;101738.75;1773133;80;21472;-75
2022/05/09 12:01:55;;;;;;;;;;;;;;;25.03;36.96;101740.05;1785844;79;21506;-76
2022/05/09 12:04:44;;;;;;;8.15;3.10;;;;;;;25.29;36.58;101735.35;1797617;79;20460;-75
2022/05/09 12:07:40;;;;;;;5.97;3.10;;;;;;;25.47;36.50;101741.97;1804506;79;21130;-77
2022/05/09 12:10:15;;;;;;;6.15;3.30;;;;;;;25.15;36.10;101730.56;1789322;79;21093;-75